Comstock Park, Michigan
Current Conditions -  °F | °C
As of 4:53 PM on Wednesday 22 Oct 2014 (Local Time) from KGRR Reporting Station
Scattered Clouds Scattered Clouds  
Wind Chill: 50°   Ceiling: Unl
Heat Index: 50°   Visibility: 10mi
Dew Point: 39°   Wind: 5mph
Humidity: 66%   Direction: 110°ESE
Pressure: 30.32"   Gusts: NA
Location:  43.03°N, 85.67°W
Report Text: KGRR 222053Z 11004KT 10SM SCT024 10/04 A3032 RMK AO2 SLP274 T01000039 56012
Loading
Personal Weather Stations






























Interactive Weather Map
Tropical Storm Tracking
New forecast layout! Learn more

10-Day Weather Forecast

Advertisements
Track Severe Weather on mobile